Time;durP1;ratioP1;P1;durP2;ratioP2;P2;SDS_P1;SDS_P2;PMS_P1;PMS_P2;Temp;Humidity;BMP_temperature;BMP_pressure;BME280_temperature;BME280_humidity;BME280_pressure;Samples;Min_cycle;Max_cycle;Signal;HPM_P1;HPM_P2
2023/06/25 00:01:06;;;;;;;6.57;5.63;;;;;;;17.45;64.96;99544.41;5085432;28;20293;-69
2023/06/25 00:03:34;;;;;;;6.40;5.80;;;;;;;17.30;64.71;99517.03;5085314;28;20316;-69
2023/06/25 00:06:01;;;;;;;6.85;5.78;;;;;;;17.49;64.54;99542.34;5085278;28;20037;-69
2023/06/25 00:08:27;;;;;;;5.97;5.38;;;;;;;17.44;64.32;99541.84;5067642;28;20324;-70
2023/06/25 00:10:54;;;;;;;6.15;5.55;;;;;;;17.38;64.85;99537.84;5085189;28;20059;-70
2023/06/25 00:13:21;;;;;;;6.93;6.00;;;;;;;17.38;65.06;99537.84;5085204;28;20040;-69
2023/06/25 00:15:47;;;;;;;9.65;5.65;;;;;;;17.27;64.34;99540.53;5085422;28;20052;-69
2023/06/25 00:18:14;;;;;;;6.63;5.55;;;;;;;17.39;64.29;99536.88;5085426;28;20277;-69
2023/06/25 00:20:43;;;;;;;8.38;5.85;;;;;;;16.63;64.09;99423.28;5067571;28;20032;-68
2023/06/25 00:23:09;;;;;;;6.15;5.55;;;;;;;17.33;64.06;99528.47;5085078;28;20074;-69
2023/06/25 00:25:36;;;;;;;7.63;5.95;;;;;;;17.40;63.93;99517.16;5085383;28;20040;-69
2023/06/25 00:28:08;;;;;;;7.05;6.05;;;;;;;17.35;64.24;99522.03;5085629;28;20052;-69
2023/06/25 00:30:34;;;;;;;5.88;5.28;;;;;;;17.37;64.30;99517.38;5085076;28;20044;-70
2023/06/25 00:33:01;;;;;;;6.60;5.90;;;;;;;17.35;64.46;99521.16;5085584;28;20054;-69
2023/06/25 00:35:29;;;;;;;7.28;6.05;;;;;;;17.30;64.34;99524.22;5085555;28;20040;-70
2023/06/25 00:38:00;;;;;;;9.52;5.95;;;;;;;17.28;64.93;99516.31;5085281;28;20037;-70
2023/06/25 00:40:27;;;;;;;7.25;5.85;;;;;;;17.30;64.86;99521.53;5085417;28;20082;-70
2023/06/25 00:42:58;;;;;;;7.07;6.38;;;;;;;17.22;65.21;99518.63;5084729;28;20068;-70
2023/06/25 00:45:26;;;;;;;7.03;5.68;;;;;;;17.29;64.87;99511.78;5084874;28;20044;-69
2023/06/25 00:47:53;;;;;;;6.07;5.38;;;;;;;17.12;65.46;99509.59;5085438;28;20040;-70
2023/06/25 00:50:21;;;;;;;6.15;5.55;;;;;;;17.08;65.85;99505.44;5067282;28;20319;-69
2023/06/25 00:52:49;;;;;;;7.45;6.13;;;;;;;17.15;64.91;99507.50;5084800;28;20358;-69
2023/06/25 00:55:18;;;;;;;5.53;5.03;;;;;;;17.14;65.41;99510.31;5084851;28;20037;-69
2023/06/25 00:57:45;;;;;;;6.85;6.10;;;;;;;17.17;65.30;99500.22;5085064;28;20044;-69
2023/06/25 01:00:14;;;;;;;7.32;5.75;;;;;;;16.65;65.50;99442.75;5085301;28;20048;-69
2023/06/25 01:02:46;;;;;;;8.23;5.90;;;;;;;17.04;65.86;99501.31;5085568;28;20205;-70
2023/06/25 01:05:18;;;;;;;7.90;5.20;;;;;;;17.12;65.23;99502.41;5085085;28;20102;-69
2023/06/25 01:07:46;;;;;;;6.78;5.90;;;;;;;17.06;65.91;99500.22;5088551;28;20036;-69
2023/06/25 01:10:13;;;;;;;6.80;5.43;;;;;;;16.27;65.76;99359.31;5088721;28;20063;-69
2023/06/25 01:12:42;;;;;;;9.73;5.78;;;;;;;16.76;66.43;99451.78;5088094;28;20182;-68
2023/06/25 01:15:10;;;;;;;6.70;5.97;;;;;;;17.06;66.01;99494.00;5088084;28;20252;-67
2023/06/25 01:17:37;;;;;;;6.82;5.38;;;;;;;17.02;66.41;99492.53;5088364;28;20406;-67
2023/06/25 01:20:05;;;;;;;6.68;5.75;;;;;;;16.99;66.85;99486.47;5088028;28;20086;-68
2023/06/25 01:22:34;;;;;;;6.85;5.90;;;;;;;17.00;66.63;99488.16;5088561;28;20067;-69
2023/06/25 01:25:01;;;;;;;7.70;6.30;;;;;;;16.94;66.77;99483.28;5088223;28;20037;-69
2023/06/25 01:27:27;;;;;;;7.32;6.18;;;;;;;16.96;66.87;99480.50;5088181;28;20301;-69
2023/06/25 01:29:55;;;;;;;6.75;5.65;;;;;;;16.93;66.94;99481.59;5088387;28;20040;-69
2023/06/25 01:32:23;;;;;;;6.95;6.25;;;;;;;16.91;66.73;99478.19;5088289;28;20047;-70
2023/06/25 01:34:50;;;;;;;7.47;6.15;;;;;;;16.95;66.72;99463.59;5088082;28;20101;-69
2023/06/25 01:37:18;;;;;;;7.72;5.80;;;;;;;16.99;66.89;99473.06;5087937;28;20243;-70
2023/06/25 01:39:49;;;;;;;7.78;6.82;;;;;;;16.42;66.97;99408.06;5088240;28;20048;-70
2023/06/25 01:42:16;;;;;;;7.70;6.47;;;;;;;16.96;66.78;99480.50;5087631;28;20049;-70
2023/06/25 01:44:42;;;;;;;9.90;6.78;;;;;;;16.90;66.60;99481.84;5070071;28;20037;-69
2023/06/25 01:47:09;;;;;;;9.48;6.72;;;;;;;16.96;66.77;99483.19;5087800;28;20048;-69
2023/06/25 01:49:36;;;;;;;7.50;6.13;;;;;;;16.89;67.01;99471.25;5087814;28;20331;-69
2023/06/25 01:52:03;;;;;;;7.45;5.95;;;;;;;16.33;67.05;99389.09;5087956;28;20032;-69
2023/06/25 01:54:30;;;;;;;8.55;6.20;;;;;;;16.86;67.25;99468.81;5087899;28;20056;-69
2023/06/25 01:56:59;;;;;;;7.28;6.53;;;;;;;16.91;67.07;99463.94;5087673;28;20119;-69
2023/06/25 01:59:26;;;;;;;7.78;6.45;;;;;;;16.87;66.79;99468.69;5088315;28;20052;-68
2023/06/25 02:01:53;;;;;;;7.82;6.78;;;;;;;16.82;67.69;99462.00;5087354;28;20251;-69
2023/06/25 02:04:20;;;;;;;8.30;6.53;;;;;;;16.86;67.56;99460.78;5087440;28;20102;-69
2023/06/25 02:06:47;;;;;;;6.40;5.80;;;;;;;16.81;67.67;99458.47;5087694;28;20036;-69
2023/06/25 02:09:14;;;;;;;9.63;7.30;;;;;;;16.74;67.76;99457.25;5087195;28;20056;-69
2023/06/25 02:11:41;;;;;;;8.35;6.47;;;;;;;16.79;67.64;99454.22;5087196;28;20101;-69
2023/06/25 02:14:09;;;;;;;7.13;6.13;;;;;;;16.84;67.35;99460.06;5086985;28;20040;-70
2023/06/25 02:16:36;;;;;;;6.88;6.18;;;;;;;16.77;67.31;99459.69;5086797;28;20048;-69
2023/06/25 02:19:02;;;;;;;7.35;6.50;;;;;;;16.84;67.03;99458.22;5087158;28;20288;-69
2023/06/25 02:21:29;;;;;;;8.10;6.63;;;;;;;16.79;67.28;99457.75;5086829;28;20041;-69
2023/06/25 02:23:56;;;;;;;7.97;6.55;;;;;;;16.80;67.55;99461.28;5087043;28;20066;-69
2023/06/25 02:26:22;;;;;;;6.75;6.15;;;;;;;16.87;67.06;99468.69;5086973;28;20319;-69
2023/06/25 02:28:49;;;;;;;8.30;7.00;;;;;;;16.83;67.46;99467.25;5087186;28;20036;-69
2023/06/25 02:31:23;;;;;;;8.55;6.90;;;;;;;16.83;67.77;99469.06;5087113;28;20040;-69
2023/06/25 02:33:50;;;;;;;7.72;6.82;;;;;;;16.86;67.57;99461.63;5086892;28;20032;-69
2023/06/25 02:36:17;;;;;;;8.73;7.80;;;;;;;16.85;67.80;99456.41;5086536;28;20094;-69
2023/06/25 02:38:44;;;;;;;7.45;6.75;;;;;;;16.81;68.26;99458.47;5086795;28;20044;-69
2023/06/25 02:41:11;;;;;;;7.78;7.00;;;;;;;16.75;68.52;99452.75;5086255;28;20219;-69
2023/06/25 02:43:37;;;;;;;8.05;7.25;;;;;;;16.61;68.84;99441.28;5086938;28;20048;-68
2023/06/25 02:46:04;;;;;;;8.10;6.80;;;;;;;16.65;69.42;99455.28;5086627;28;20288;-69
2023/06/25 02:48:32;;;;;;;7.35;6.65;;;;;;;16.77;68.72;99448.13;5086421;28;20037;-69
2023/06/25 02:50:59;;;;;;;8.48;7.07;;;;;;;16.77;69.06;99456.16;5086549;28;20300;-69
2023/06/25 02:53:25;;;;;;;8.27;7.47;;;;;;;16.70;69.56;99454.94;5086693;28;20044;-69
2023/06/25 02:55:52;;;;;;;8.77;7.00;;;;;;;16.70;69.07;99455.78;5086982;28;20047;-69
2023/06/25 02:58:19;;;;;;;11.20;7.57;;;;;;;16.71;69.37;99459.31;5086414;28;20060;-69
2023/06/25 03:00:45;;;;;;;8.55;7.03;;;;;;;16.69;69.34;99451.41;5086345;28;20036;-69
2023/06/25 03:03:12;;;;;;;7.97;7.05;;;;;;;16.63;69.29;99455.41;5086279;28;20033;-69
2023/06/25 03:05:40;;;;;;;8.15;6.63;;;;;;;16.65;68.88;99452.59;5086259;28;20063;-69
2023/06/25 03:08:07;;;;;;;8.35;7.55;;;;;;;16.77;68.37;99458.84;5086555;28;20041;-68
2023/06/25 03:10:37;;;;;;;8.18;7.35;;;;;;;16.73;68.16;99463.59;5085895;28;20041;-69
2023/06/25 03:13:04;;;;;;;7.97;7.13;;;;;;;16.59;68.75;99459.28;5085827;28;20036;-69
2023/06/25 03:15:31;;;;;;;9.35;7.75;;;;;;;16.65;68.81;99450.78;5085840;28;20036;-69
2023/06/25 03:17:58;;;;;;;9.25;8.23;;;;;;;16.57;68.74;99457.69;5086081;28;20044;-69
2023/06/25 03:20:24;;;;;;;9.45;7.43;;;;;;;16.51;68.92;99459.03;5086312;28;20048;-69
2023/06/25 03:22:52;;;;;;;7.65;6.85;;;;;;;16.55;68.90;99455.16;5086290;28;20097;-69
2023/06/25 03:25:19;;;;;;;8.57;7.45;;;;;;;16.52;68.67;99460.72;5085694;28;20086;-69
2023/06/25 03:27:46;;;;;;;9.20;7.10;;;;;;;16.51;68.95;99459.03;5086085;28;20055;-69
2023/06/25 03:30:12;;;;;;;9.45;7.55;;;;;;;16.60;68.73;99463.66;5085857;28;20040;-68
2023/06/25 03:32:39;;;;;;;7.40;6.55;;;;;;;16.60;68.74;99465.50;5085783;28;20239;-68
2023/06/25 03:35:06;;;;;;;8.55;7.63;;;;;;;16.56;68.60;99477.41;5086115;28;20054;-69
2023/06/25 03:37:33;;;;;;;7.95;6.90;;;;;;;16.57;68.59;99471.94;5086145;28;20048;-68
2023/06/25 03:40:01;;;;;;;8.50;7.18;;;;;;;16.59;68.82;99463.78;5085781;28;20178;-69
2023/06/25 03:42:27;;;;;;;8.43;7.40;;;;;;;16.61;68.79;99473.41;5085422;28;20091;-69
2023/06/25 03:44:55;;;;;;;10.00;7.05;;;;;;;16.67;68.30;99480.97;5085501;28;20070;-69
2023/06/25 03:47:22;;;;;;;9.45;7.07;;;;;;;16.67;68.22;99474.78;5085472;28;20054;-69
2023/06/25 03:49:49;;;;;;;7.78;6.72;;;;;;;16.68;68.28;99482.69;5085468;28;20093;-69
2023/06/25 03:52:16;;;;;;;9.20;7.28;;;;;;;16.71;67.58;99478.06;5085587;28;20090;-69
2023/06/25 03:54:42;;;;;;;8.40;7.38;;;;;;;16.63;68.43;99486.66;5085653;28;20123;-69
2023/06/25 03:57:10;;;;;;;8.93;8.02;;;;;;;16.74;68.02;99486.69;5085635;28;20056;-69
2023/06/25 03:59:37;;;;;;;8.82;7.22;;;;;;;16.71;68.10;99492.28;5085354;28;20040;-69
2023/06/25 04:02:05;;;;;;;8.55;7.22;;;;;;;16.57;68.58;99487.97;5085855;28;20094;-69
2023/06/25 04:04:32;;;;;;;11.15;7.95;;;;;;;16.65;68.12;99482.03;5085829;28;20101;-69
2023/06/25 04:06:58;;;;;;;8.57;7.40;;;;;;;16.71;68.13;99486.09;5085543;28;20052;-69
2023/06/25 04:09:25;;;;;;;7.97;7.18;;;;;;;16.69;67.96;99480.84;5085231;28;20040;-69
2023/06/25 04:11:51;;;;;;;7.97;7.18;;;;;;;16.72;67.89;99488.63;5085679;28;20044;-69
2023/06/25 04:14:19;;;;;;;7.50;6.78;;;;;;;16.64;68.42;99489.22;5085767;28;20239;-69
2023/06/25 04:16:46;;;;;;;8.55;7.75;;;;;;;16.79;67.55;99489.88;5085691;28;20049;-69
2023/06/25 04:19:13;;;;;;;9.30;8.40;;;;;;;16.79;67.82;99491.69;5085403;28;20052;-69
2023/06/25 04:21:39;;;;;;;7.97;7.13;;;;;;;16.75;67.38;99491.06;5085391;28;20086;-69
2023/06/25 04:24:07;;;;;;;8.85;7.55;;;;;;;16.76;67.62;99494.59;5085400;28;20102;-69
2023/06/25 04:26:33;;;;;;;7.10;6.40;;;;;;;16.65;67.52;99482.88;5085649;28;20102;-69
2023/06/25 04:29:00;;;;;;;8.60;7.70;;;;;;;16.81;67.30;99500.44;5085038;28;20048;-69
2023/06/25 04:31:28;;;;;;;9.35;7.47;;;;;;;16.86;67.17;99508.97;5085030;28;20045;-69
2023/06/25 04:33:55;;;;;;;9.07;7.32;;;;;;;16.88;66.71;99502.53;5084935;28;20056;-69
2023/06/25 04:36:21;;;;;;;8.32;7.43;;;;;;;16.92;66.11;99509.34;5085540;28;20053;-69
2023/06/25 04:38:48;;;;;;;9.18;7.82;;;;;;;16.95;66.39;99506.41;5085342;28;20310;-69
2023/06/25 04:41:15;;;;;;;7.93;7.15;;;;;;;16.95;66.38;99508.25;5086710;28;20052;-69
2023/06/25 04:43:41;;;;;;;9.40;7.10;;;;;;;16.97;66.03;99512.50;5089232;28;20047;-69
2023/06/25 04:46:08;;;;;;;10.82;8.02;;;;;;;16.96;65.90;99510.81;5089227;28;20044;-68
2023/06/25 04:48:36;;;;;;;8.60;7.35;;;;;;;16.99;65.66;99510.56;5088926;28;20059;-69
2023/06/25 04:51:04;;;;;;;10.35;7.97;;;;;;;17.00;65.30;99509.59;5088581;28;20037;-69
2023/06/25 04:53:31;;;;;;;8.75;7.85;;;;;;;16.96;65.62;99508.13;5088526;28;20112;-68
2023/06/25 04:55:57;;;;;;;8.98;8.07;;;;;;;16.93;66.01;99503.00;5088754;28;20044;-68
2023/06/25 04:58:24;;;;;;;7.80;7.10;;;;;;;17.03;65.64;99505.81;5089251;28;20075;-69
2023/06/25 05:00:51;;;;;;;10.00;7.55;;;;;;;17.07;65.57;99504.59;5088613;28;20044;-69
2023/06/25 05:03:17;;;;;;;9.15;7.93;;;;;;;17.11;65.91;99499.84;5088343;28;20052;-69
2023/06/25 05:05:45;;;;;;;9.00;7.43;;;;;;;17.16;65.42;99500.34;5088510;28;20108;-69
2023/06/25 05:08:12;;;;;;;8.25;7.35;;;;;;;17.16;65.73;99500.34;5088563;28;20284;-69
2023/06/25 05:10:39;;;;;;;7.97;6.93;;;;;;;17.17;65.70;99496.69;5088747;28;20052;-69
2023/06/25 05:13:05;;;;;;;8.68;7.38;;;;;;;17.21;65.92;99499.03;5088619;28;20051;-69
2023/06/25 05:15:32;;;;;;;7.65;6.95;;;;;;;17.22;65.57;99500.72;5088383;28;20055;-69
2023/06/25 05:17:59;;;;;;;8.88;7.90;;;;;;;17.31;65.69;99501.81;5088635;28;20281;-69
2023/06/25 05:20:25;;;;;;;9.77;7.25;;;;;;;17.30;65.21;99500.97;5088048;28;20056;-69
2023/06/25 05:22:53;;;;;;;7.75;6.97;;;;;;;17.35;65.19;99505.94;5088143;28;20047;-69
2023/06/25 05:25:20;;;;;;;10.23;7.90;;;;;;;17.47;64.81;99504.94;5087943;28;20060;-69
2023/06/25 05:27:47;;;;;;;8.02;6.85;;;;;;;17.46;64.79;99491.69;5088183;28;20040;-69
2023/06/25 05:30:13;;;;;;;8.20;7.25;;;;;;;17.49;64.85;99491.44;5088426;28;20044;-69
2023/06/25 05:32:40;;;;;;;9.18;7.38;;;;;;;17.47;64.97;99494.22;5087799;28;20056;-69
2023/06/25 05:35:07;;;;;;;8.20;7.40;;;;;;;17.57;65.31;99488.97;5088090;28;20056;-69
2023/06/25 05:37:34;;;;;;;10.00;7.88;;;;;;;17.59;64.81;99493.22;5070196;28;20052;-69
2023/06/25 05:40:02;;;;;;;8.98;7.85;;;;;;;17.62;64.58;99495.69;5087714;28;20312;-69
2023/06/25 05:42:29;;;;;;;9.35;8.45;;;;;;;17.72;63.84;99492.25;5087502;28;20048;-69
2023/06/25 05:44:56;;;;;;;8.23;7.43;;;;;;;17.73;63.80;99492.13;5087593;28;20036;-69
2023/06/25 05:47:23;;;;;;;9.25;7.70;;;;;;;17.77;63.91;99490.91;5087905;28;20106;-69
2023/06/25 05:49:49;;;;;;;11.48;7.18;;;;;;;17.75;63.70;99494.69;5088035;28;20090;-69
2023/06/25 05:52:16;;;;;;;8.38;7.35;;;;;;;17.83;63.43;99492.22;5086918;28;20052;-69
2023/06/25 05:54:42;;;;;;;9.73;7.47;;;;;;;17.82;63.40;99491.38;5088018;28;20048;-69
2023/06/25 05:57:11;;;;;;;7.97;7.10;;;;;;;17.83;63.25;99495.75;5087635;28;20086;-70
2023/06/25 05:59:38;;;;;;;8.38;7.15;;;;;;;17.88;63.35;99492.69;5087597;28;20239;-69
2023/06/25 06:02:07;;;;;;;9.45;7.70;;;;;;;17.92;63.19;99489.63;5087554;28;20289;-69
2023/06/25 06:04:34;;;;;;;8.52;7.25;;;;;;;17.93;63.20;99485.97;5087181;28;20094;-69
2023/06/25 06:07:01;;;;;;;8.38;6.70;;;;;;;17.93;63.05;99482.44;5087415;28;20306;-69
2023/06/25 06:09:27;;;;;;;9.20;8.18;;;;;;;18.00;62.27;99486.31;5087030;28;20252;-69
2023/06/25 06:11:54;;;;;;;8.45;7.20;;;;;;;17.99;62.55;99489.97;5087069;28;20050;-69
2023/06/25 06:14:22;;;;;;;9.57;8.00;;;;;;;18.02;62.48;99486.19;5086961;28;20231;-69
2023/06/25 06:16:49;;;;;;;8.73;7.93;;;;;;;18.03;61.78;99493.25;5086931;28;20094;-69
2023/06/25 06:19:16;;;;;;;9.05;7.05;;;;;;;18.00;62.41;99489.00;5087425;28;20044;-69
2023/06/25 06:21:42;;;;;;;9.13;7.10;;;;;;;18.01;62.25;99496.06;5086869;28;20044;-69
2023/06/25 06:24:09;;;;;;;9.00;7.10;;;;;;;18.10;62.12;99489.06;5087355;28;20101;-69
2023/06/25 06:26:36;;;;;;;7.95;6.97;;;;;;;18.11;61.92;99483.56;5087278;28;20033;-69
2023/06/25 06:29:03;;;;;;;8.80;7.63;;;;;;;18.15;62.03;99485.00;5087218;28;20185;-69
2023/06/25 06:31:32;;;;;;;8.80;7.60;;;;;;;18.21;61.80;99480.97;5086688;28;20063;-69
2023/06/25 06:33:59;;;;;;;7.60;6.82;;;;;;;18.25;61.40;99482.41;5087052;28;20059;-69
2023/06/25 06:36:25;;;;;;;8.32;6.97;;;;;;;18.24;61.42;99481.56;5086778;28;20052;-69
2023/06/25 06:38:52;;;;;;;8.85;7.63;;;;;;;18.28;61.46;99487.50;5086716;28;20192;-69
2023/06/25 06:41:19;;;;;;;7.82;6.95;;;;;;;18.35;60.84;99477.09;5086445;28;20308;-69
2023/06/25 06:43:46;;;;;;;8.95;8.05;;;;;;;18.33;61.25;99468.34;5086671;28;20036;-69
2023/06/25 06:46:12;;;;;;;8.30;7.00;;;;;;;18.44;61.42;99473.63;5086621;28;20052;-69
2023/06/25 06:48:40;;;;;;;10.35;7.40;;;;;;;18.45;60.96;99469.97;5086620;28;20052;-69
2023/06/25 06:51:07;;;;;;;8.20;7.40;;;;;;;18.43;61.21;99470.09;5086277;28;20040;-69
2023/06/25 06:53:34;;;;;;;9.52;7.65;;;;;;;18.49;60.85;99471.41;5086408;28;20048;-69
2023/06/25 06:56:00;;;;;;;8.70;7.75;;;;;;;18.51;60.98;99472.13;5086485;28;20040;-69
2023/06/25 06:58:27;;;;;;;8.38;7.30;;;;;;;18.55;61.05;99474.44;5086114;28;20066;-69
2023/06/25 07:00:54;;;;;;;8.57;7.13;;;;;;;18.57;60.84;99461.75;5086276;28;20050;-69
2023/06/25 07:03:20;;;;;;;15.85;8.50;;;;;;;18.63;60.45;99464.88;5085860;28;20040;-69
2023/06/25 07:05:48;;;;;;;9.02;7.70;;;;;;;18.72;60.44;99472.13;5086325;28;20041;-69
2023/06/25 07:08:15;;;;;;;8.30;7.32;;;;;;;18.82;60.41;99462.28;5085961;28;20098;-69
2023/06/25 07:10:42;;;;;;;9.95;8.57;;;;;;;19.00;59.97;99468.75;5086482;28;20040;-69
2023/06/25 07:13:09;;;;;;;8.82;7.70;;;;;;;19.17;59.22;99470.78;5085818;28;20048;-69
2023/06/25 07:15:35;;;;;;;8.60;7.70;;;;;;;19.38;59.47;99467.16;5086185;28;20049;-69
2023/06/25 07:18:02;;;;;;;9.45;7.65;;;;;;;19.53;59.47;99468.50;5086097;28;20102;-69
2023/06/25 07:20:29;;;;;;;8.32;7.53;;;;;;;19.62;58.25;99467.66;5086175;28;20052;-70
2023/06/25 07:22:56;;;;;;;9.75;8.25;;;;;;;19.59;57.86;99467.09;5086008;28;20044;-69
2023/06/25 07:25:23;;;;;;;8.70;7.72;;;;;;;19.71;58.46;99458.75;5085972;28;20044;-70
2023/06/25 07:27:50;;;;;;;9.05;8.15;;;;;;;19.70;56.94;99454.38;5085960;28;20044;-70
2023/06/25 07:30:17;;;;;;;8.38;7.40;;;;;;;19.73;56.22;99453.25;5085962;28;20051;-69
2023/06/25 07:32:43;;;;;;;9.15;7.63;;;;;;;19.76;55.54;99455.66;5085821;28;20045;-69
2023/06/25 07:35:10;;;;;;;9.88;8.23;;;;;;;19.86;56.23;99475.38;5086119;28;20175;-69
2023/06/25 07:37:37;;;;;;;8.15;7.35;;;;;;;20.19;55.95;99447.19;5085837;28;20249;-69
2023/06/25 07:40:06;;;;;;;9.32;7.60;;;;;;;20.14;55.53;99444.06;5085744;28;20102;-70
2023/06/25 07:42:33;;;;;;;8.80;7.53;;;;;;;20.26;56.50;99442.09;5085184;28;20053;-69
2023/06/25 07:45:00;;;;;;;8.63;7.47;;;;;;;20.53;55.36;99439.50;5068131;28;20037;-69
2023/06/25 07:47:27;;;;;;;7.72;6.95;;;;;;;20.71;55.51;99443.13;5085686;28;20224;-69
2023/06/25 07:49:53;;;;;;;8.60;7.57;;;;;;;20.88;55.44;99435.28;5085689;28;20036;-69
2023/06/25 07:52:20;;;;;;;7.38;6.65;;;;;;;21.06;54.11;99441.59;5085907;28;20058;-69
2023/06/25 07:54:47;;;;;;;8.18;7.32;;;;;;;20.94;54.60;99440.06;5085564;28;20228;-69
2023/06/25 07:57:15;;;;;;;7.60;6.82;;;;;;;21.10;54.52;99402.56;5085420;28;20051;-69
2023/06/25 07:59:42;;;;;;;8.05;7.20;;;;;;;21.62;54.02;99430.63;5085284;28;20052;-69
2023/06/25 08:02:09;;;;;;;9.13;8.20;;;;;;;21.76;52.19;99427.38;5085239;28;20044;-69
2023/06/25 08:04:35;;;;;;;8.40;7.50;;;;;;;21.99;52.76;99414.31;5085235;28;20040;-70
2023/06/25 08:07:02;;;;;;;9.23;7.60;;;;;;;22.13;51.49;99422.84;5085506;28;20052;-70
2023/06/25 08:09:29;;;;;;;9.68;8.00;;;;;;;22.23;50.70;99412.78;5085248;28;20036;-69
2023/06/25 08:11:56;;;;;;;11.07;8.18;;;;;;;22.31;51.08;99418.25;5085406;28;20281;-69
2023/06/25 08:14:24;;;;;;;8.35;7.28;;;;;;;22.56;51.09;99420.19;5085471;28;20040;-69
2023/06/25 08:16:51;;;;;;;8.30;7.28;;;;;;;22.64;50.73;99393.22;5089832;28;20040;-69
2023/06/25 08:19:17;;;;;;;10.05;8.27;;;;;;;22.80;49.76;99413.22;5089812;28;20037;-69
2023/06/25 08:21:44;;;;;;;9.93;7.95;;;;;;;22.83;49.46;99416.44;5089461;28;20288;-69
2023/06/25 08:24:10;;;;;;;7.18;6.47;;;;;;;22.96;48.60;99421.41;5090189;28;20040;-69
2023/06/25 08:26:37;;;;;;;10.07;7.32;;;;;;;23.15;48.44;99418.44;5089353;28;20036;-69
2023/06/25 08:29:04;;;;;;;7.70;6.85;;;;;;;23.19;48.88;99427.91;5089574;28;20055;-70
2023/06/25 08:31:33;;;;;;;7.43;6.72;;;;;;;23.25;48.40;99418.31;5089052;28;20090;-70
2023/06/25 08:33:59;;;;;;;7.93;7.00;;;;;;;23.29;48.08;99414.28;5089176;28;20067;-70
2023/06/25 08:36:26;;;;;;;8.63;6.88;;;;;;;23.40;47.14;99413.16;5089052;28;20115;-69
2023/06/25 08:38:53;;;;;;;7.78;7.05;;;;;;;23.46;46.67;99412.47;5088721;28;20050;-69
2023/06/25 08:41:20;;;;;;;7.63;6.80;;;;;;;23.63;46.58;99408.81;5088436;28;20059;-70
2023/06/25 08:43:46;;;;;;;7.43;6.60;;;;;;;23.80;47.41;99415.91;5088657;28;20036;-69
2023/06/25 08:46:14;;;;;;;8.88;6.90;;;;;;;23.25;47.10;99392.13;5088806;28;20052;-70
2023/06/25 08:48:44;;;;;;;8.70;6.55;;;;;;;23.13;47.70;99406.09;5088723;28;20224;-70
2023/06/25 08:51:16;;;;;;;8.88;7.70;;;;;;;23.34;47.74;99411.94;5088641;28;20308;-70
2023/06/25 08:53:44;;;;;;;8.80;6.72;;;;;;;23.39;46.76;99406.03;5088750;28;20055;-70
2023/06/25 08:56:15;;;;;;;8.07;7.28;;;;;;;23.58;47.26;99408.44;5088530;28;20044;-70
2023/06/25 08:58:42;;;;;;;10.10;7.68;;;;;;;23.91;46.20;99404.75;5088672;28;20036;-70
2023/06/25 09:01:09;;;;;;;7.97;7.18;;;;;;;23.75;45.17;99399.34;5088701;28;20036;-69
2023/06/25 09:03:35;;;;;;;7.20;6.50;;;;;;;23.61;45.31;99408.13;5088331;28;20036;-70
2023/06/25 09:06:11;;;;;;;7.45;6.65;;;;;;;23.72;45.35;99398.84;5088332;28;20098;-69
2023/06/25 09:08:40;;;;;;;8.95;7.00;;;;;;;24.19;44.65;99390.91;5088543;28;20044;-70
2023/06/25 09:11:07;;;;;;;7.75;7.05;;;;;;;24.29;43.70;99388.88;5088678;28;20044;-70
2023/06/25 09:13:34;;;;;;;7.35;6.65;;;;;;;24.51;43.02;99382.72;5088561;28;20044;-70
2023/06/25 09:16:01;;;;;;;8.60;6.82;;;;;;;24.72;42.66;99386.78;5088543;28;20102;-70
2023/06/25 09:18:29;;;;;;;7.18;6.28;;;;;;;24.88;41.05;99384.84;5089121;28;20106;-70
2023/06/25 09:20:56;;;;;;;8.00;6.90;;;;;;;25.04;41.46;99391.25;5088041;28;20036;-69
2023/06/25 09:23:25;;;;;;;9.07;6.53;;;;;;;25.11;40.75;99374.09;5088159;28;20062;-70
2023/06/25 09:25:52;;;;;;;8.15;6.53;;;;;;;25.17;41.07;99388.81;5087818;28;20255;-70
2023/06/25 09:28:19;;;;;;;8.00;6.47;;;;;;;25.00;41.37;99335.66;5088124;28;20041;-70
2023/06/25 09:30:46;;;;;;;7.88;6.43;;;;;;;24.98;40.96;99311.44;5088070;28;20098;-70
2023/06/25 09:33:14;;;;;;;8.90;7.22;;;;;;;25.24;41.21;99374.38;5087697;28;20048;-70
2023/06/25 09:35:41;;;;;;;7.93;7.10;;;;;;;25.24;41.20;99376.25;5087776;28;20048;-70
2023/06/25 09:38:08;;;;;;;8.57;6.72;;;;;;;25.34;40.46;99363.34;5087468;28;20086;-70
2023/06/25 09:40:36;;;;;;;10.18;7.20;;;;;;;25.39;42.09;99365.50;5088195;28;20064;-70
2023/06/25 09:43:06;;;;;;;9.07;7.05;;;;;;;25.47;41.56;99365.47;5087489;28;20059;-70
2023/06/25 09:45:34;;;;;;;7.07;6.38;;;;;;;25.58;41.62;99362.31;5088046;28;20037;-70
2023/06/25 09:48:01;;;;;;;8.85;6.80;;;;;;;25.48;40.57;99362.56;5087535;28;20056;-70
2023/06/25 09:50:33;;;;;;;8.35;6.68;;;;;;;25.50;41.55;99360.50;5087824;28;20285;-69
2023/06/25 09:53:02;;;;;;;9.18;7.03;;;;;;;25.54;41.15;99356.41;5087296;28;20236;-70
2023/06/25 09:55:30;;;;;;;8.90;6.75;;;;;;;25.74;40.41;99347.78;5087583;28;20048;-70
2023/06/25 09:57:58;;;;;;;7.68;6.70;;;;;;;25.66;39.44;99343.25;5087644;28;20040;-70
2023/06/25 10:00:25;;;;;;;9.02;6.28;;;;;;;25.16;39.85;99343.75;5087295;28;20082;-70
2023/06/25 10:02:52;;;;;;;7.13;6.40;;;;;;;25.24;40.19;99349.97;5087665;28;20048;-70
2023/06/25 10:05:19;;;;;;;6.75;6.15;;;;;;;25.21;40.63;99358.47;5087000;28;20060;-70
2023/06/25 10:07:46;;;;;;;7.60;6.57;;;;;;;24.50;41.13;99218.50;5087221;28;20295;-70
2023/06/25 10:10:20;;;;;;;7.82;6.68;;;;;;;25.35;41.01;99331.63;5086843;28;20090;-70
2023/06/25 10:12:48;;;;;;;7.85;7.15;;;;;;;25.57;40.64;99345.19;5087560;28;20044;-70
2023/06/25 10:15:16;;;;;;;7.60;6.55;;;;;;;25.69;40.16;99342.06;5088061;28;20280;-70
2023/06/25 10:17:48;;;;;;;8.23;7.43;;;;;;;25.65;39.95;99348.88;5069367;28;20200;-70
2023/06/25 10:20:26;;;;;;;8.50;7.60;;;;;;;25.58;40.03;99346.88;5087187;28;20289;-70
2023/06/25 10:23:03;;;;;;;9.13;8.23;;;;;;;25.48;39.68;99342.72;5087351;28;20046;-70
2023/06/25 10:25:30;;;;;;;9.50;7.93;;;;;;;25.49;39.08;99352.56;5086942;28;20041;-70
2023/06/25 10:28:03;;;;;;;8.40;7.28;;;;;;;25.55;39.49;99330.13;5087153;28;20036;-70
2023/06/25 10:30:38;;;;;;;7.32;6.60;;;;;;;25.55;38.92;99339.09;5086784;28;20173;-70
2023/06/25 10:33:05;;;;;;;7.85;7.10;;;;;;;25.76;39.79;99327.56;5087017;28;20191;-70
2023/06/25 10:35:37;;;;;;;8.15;7.28;;;;;;;25.85;39.31;99331.91;5087050;28;20094;-69
2023/06/25 10:38:04;;;;;;;10.13;7.15;;;;;;;25.87;39.24;99335.28;5086466;28;20101;-70
2023/06/25 10:40:33;;;;;;;9.77;8.23;;;;;;;25.83;39.39;99322.25;5086772;28;20115;-70
2023/06/25 10:43:00;;;;;;;8.77;7.88;;;;;;;25.75;39.80;99325.03;5086170;28;20048;-70
2023/06/25 10:45:27;;;;;;;8.13;7.30;;;;;;;25.85;39.03;99321.06;5086908;28;20040;-70
2023/06/25 10:48:03;;;;;;;8.27;7.47;;;;;;;26.07;40.05;99321.22;5086579;28;20064;-70
2023/06/25 10:50:30;;;;;;;8.40;7.45;;;;;;;25.50;39.76;99325.25;5086823;28;20052;-70
2023/06/25 10:52:57;;;;;;;8.93;8.02;;;;;;;25.57;39.96;99320.78;5086186;28;20063;-70
2023/06/25 10:55:24;;;;;;;9.27;7.93;;;;;;;25.69;40.14;99313.06;5086629;28;20047;-70
2023/06/25 10:57:52;;;;;;;10.15;8.95;;;;;;;25.77;40.21;99302.13;5086726;28;20048;-70
2023/06/25 11:00:22;;;;;;;11.32;8.70;;;;;;;25.54;39.04;99306.72;5086641;28;20045;-70
2023/06/25 11:02:51;;;;;;;8.90;8.10;;;;;;;25.41;40.16;99290.22;5086307;28;20184;-70
2023/06/25 11:05:19;;;;;;;9.75;8.75;;;;;;;25.61;39.97;99306.84;5086123;28;20051;-70
2023/06/25 11:07:46;;;;;;;8.95;8.05;;;;;;;25.75;40.34;99303.34;5086055;28;20044;-70
2023/06/25 11:10:13;;;;;;;9.57;8.13;;;;;;;25.80;39.95;99282.75;5085389;28;20044;-70
2023/06/25 11:12:41;;;;;;;8.77;7.88;;;;;;;25.91;40.06;99287.75;5085806;28;20064;-70
2023/06/25 11:15:08;;;;;;;13.57;7.50;;;;;;;26.05;40.42;99286.09;5086006;28;20090;-70
2023/06/25 11:17:34;;;;;;;8.32;7.43;;;;;;;26.13;39.88;99291.44;5086154;28;20044;-70
2023/06/25 11:20:01;;;;;;;9.35;8.30;;;;;;;26.17;39.63;99286.50;5085768;28;20255;-70
2023/06/25 11:22:29;;;;;;;8.73;7.20;;;;;;;26.10;39.21;99286.38;5085619;28;20032;-70
2023/06/25 11:24:57;;;;;;;8.63;7.30;;;;;;;26.32;39.20;99278.34;5085666;28;20033;-70
2023/06/25 11:27:26;;;;;;;8.95;8.15;;;;;;;26.34;39.30;99288.00;5085714;28;20053;-70
2023/06/25 11:29:54;;;;;;;9.85;8.23;;;;;;;26.46;39.30;99283.78;5068214;28;20043;-70
2023/06/25 11:32:26;;;;;;;9.48;7.97;;;;;;;26.33;39.25;99285.47;5085985;28;20082;-70